Time;durP1;ratioP1;P1;durP2;ratioP2;P2;SDS_P1;SDS_P2;PMS_P1;PMS_P2;Temp;Humidity;BMP_temperature;BMP_pressure;BME280_temperature;BME280_humidity;BME280_pressure;Samples;Min_cycle;Max_cycle;Signal;HPM_P1;HPM_P2
2021/09/13 00:01:59;;;;;;;12.93;8.97;;;13.50;99.90;;;;;;5034346;28;20394;-66
2021/09/13 00:04:28;;;;;;;11.73;9.17;;;13.50;99.90;;;;;;5034176;28;20213;-66
2021/09/13 00:06:56;;;;;;;10.80;9.20;;;13.40;99.90;;;;;;5039032;28;20251;-66
2021/09/13 00:09:25;;;;;;;11.27;9.80;;;13.40;99.90;;;;;;5037320;28;20181;-66
2021/09/13 00:11:54;;;;;;;12.93;10.10;;;13.40;99.90;;;;;;5035262;28;20260;-67
2021/09/13 00:14:23;;;;;;;11.33;9.10;;;13.30;99.90;;;;;;5032213;28;20317;-66
2021/09/13 00:16:52;;;;;;;11.60;9.53;;;13.30;99.90;;;;;;5037545;28;20182;-66
2021/09/13 00:19:22;;;;;;;12.00;9.00;;;13.30;99.90;;;;;;5039674;28;20173;-66
2021/09/13 00:21:51;;;;;;;10.13;8.43;;;13.30;99.90;;;;;;5034699;28;20189;-66
2021/09/13 00:24:19;;;;;;;8.90;8.03;;;13.20;99.90;;;;;;5039199;28;20304;-66
2021/09/13 00:26:47;;;;;;;10.03;8.70;;;13.20;99.90;;;;;;5036894;28;20224;-66
2021/09/13 00:29:16;;;;;;;9.07;8.17;;;13.10;99.90;;;;;;5031075;28;20337;-66
2021/09/13 00:31:45;;;;;;;8.70;7.67;;;13.10;99.90;;;;;;5034925;28;20190;-66
2021/09/13 00:34:14;;;;;;;12.40;9.27;;;13.10;99.90;;;;;;5030916;28;20190;-66
2021/09/13 00:36:42;;;;;;;10.93;9.17;;;13.00;99.90;;;;;;5036745;28;20193;-66
2021/09/13 00:39:11;;;;;;;10.57;8.77;;;13.00;99.90;;;;;;5039451;28;20441;-66
2021/09/13 00:41:39;;;;;;;10.03;7.83;;;13.00;99.90;;;;;;5036457;28;20231;-67
2021/09/13 00:44:07;;;;;;;10.90;9.27;;;12.90;99.90;;;;;;5039443;28;20229;-66
2021/09/13 00:46:36;;;;;;;13.20;9.70;;;12.90;99.90;;;;;;5039967;28;20220;-67
2021/09/13 00:49:05;;;;;;;15.80;10.10;;;12.90;99.90;;;;;;5038022;28;20186;-66
2021/09/13 00:51:34;;;;;;;12.83;10.53;;;12.90;99.90;;;;;;5031685;28;20236;-66
2021/09/13 00:54:02;;;;;;;11.50;9.70;;;12.90;99.90;;;;;;5033951;28;20452;-67
2021/09/13 00:56:31;;;;;;;14.43;10.30;;;12.90;99.90;;;;;;5031666;28;20430;-66
2021/09/13 00:59:00;;;;;;;12.03;10.27;;;12.90;99.90;;;;;;5032582;28;20196;-66
2021/09/13 01:01:28;;;;;;;12.13;9.87;;;12.80;99.90;;;;;;5032080;28;20451;-66
2021/09/13 01:03:56;;;;;;;12.30;10.13;;;12.90;99.90;;;;;;5038768;28;20219;-66
2021/09/13 01:06:26;;;;;;;14.80;9.83;;;12.80;99.90;;;;;;5033632;28;20244;-66
2021/09/13 01:08:55;;;;;;;12.37;9.30;;;12.80;99.90;;;;;;5037501;28;20186;-66
2021/09/13 01:11:23;;;;;;;13.00;9.47;;;12.80;99.90;;;;;;5036428;28;20181;-66
2021/09/13 01:13:52;;;;;;;12.80;10.27;;;12.70;99.90;;;;;;5038844;28;20232;-66
2021/09/13 01:16:20;;;;;;;12.53;9.83;;;12.70;99.90;;;;;;5038739;28;20201;-66
2021/09/13 01:18:48;;;;;;;14.17;9.73;;;12.80;99.90;;;;;;5034544;28;20252;-66
2021/09/13 01:21:17;;;;;;;12.13;10.87;;;12.80;99.90;;;;;;5036715;28;20425;-67
2021/09/13 01:23:47;;;;;;;12.80;10.43;;;12.80;99.90;;;;;;5021476;28;20185;-67
2021/09/13 01:26:16;;;;;;;11.70;10.13;;;12.80;99.90;;;;;;5036782;28;20370;-66
2021/09/13 01:28:44;;;;;;;11.30;9.47;;;12.80;99.90;;;;;;5031633;28;20209;-66
2021/09/13 01:31:13;;;;;;;12.83;9.77;;;12.80;99.90;;;;;;5032955;28;20314;-67
2021/09/13 01:33:41;;;;;;;12.67;9.63;;;12.70;99.90;;;;;;5051781;28;20181;-66
2021/09/13 01:36:09;;;;;;;16.67;11.00;;;12.70;99.90;;;;;;5035423;28;20181;-66
2021/09/13 01:38:38;;;;;;;14.63;10.73;;;12.70;99.90;;;;;;5041371;28;20185;-67
2021/09/13 01:41:08;;;;;;;11.13;9.97;;;12.70;99.90;;;;;;5042887;28;20181;-66
2021/09/13 01:43:36;;;;;;;14.30;9.40;;;12.60;99.90;;;;;;5042419;28;20217;-66
2021/09/13 01:46:05;;;;;;;12.60;10.00;;;12.60;99.90;;;;;;5040791;28;20209;-67
2021/09/13 01:48:33;;;;;;;15.20;10.83;;;12.50;99.90;;;;;;5041094;28;20189;-66
2021/09/13 01:51:02;;;;;;;15.17;10.80;;;12.50;99.90;;;;;;5040586;28;20197;-66
2021/09/13 01:53:30;;;;;;;15.70;11.53;;;12.50;99.90;;;;;;5037234;28;20195;-67
2021/09/13 01:55:58;;;;;;;17.03;11.73;;;12.50;99.90;;;;;;5037294;28;20182;-67
2021/09/13 01:58:28;;;;;;;13.40;10.83;;;12.50;99.90;;;;;;5038796;28;20185;-67
2021/09/13 02:00:56;;;;;;;15.47;11.47;;;12.40;99.90;;;;;;5039859;28;20552;-66
2021/09/13 02:03:25;;;;;;;16.07;12.47;;;12.40;99.90;;;;;;5041601;28;20194;-67
2021/09/13 02:05:54;;;;;;;14.60;11.90;;;12.30;99.90;;;;;;5037695;28;20285;-66
2021/09/13 02:08:23;;;;;;;14.27;10.73;;;12.30;99.90;;;;;;5039532;28;20193;-67
2021/09/13 02:10:51;;;;;;;13.17;10.73;;;12.30;99.90;;;;;;5040281;28;20207;-66
2021/09/13 02:13:19;;;;;;;16.80;12.10;;;12.20;99.90;;;;;;5032034;28;20425;-66
2021/09/13 02:15:52;;;;;;;18.03;12.93;;;12.20;99.90;;;;;;5042542;28;20194;-67
2021/09/13 02:18:20;;;;;;;16.27;12.03;;;12.20;99.90;;;;;;5037724;28;20185;-66
2021/09/13 02:20:48;;;;;;;17.20;12.70;;;12.20;99.90;;;;;;5035455;28;20199;-67
2021/09/13 02:23:17;;;;;;;16.40;11.87;;;12.20;99.90;;;;;;5037577;28;20178;-66
2021/09/13 02:25:45;;;;;;;17.53;13.00;;;12.10;99.90;;;;;;5023626;28;20189;-67
2021/09/13 02:28:14;;;;;;;20.07;13.90;;;12.20;99.90;;;;;;5041180;28;20240;-67
2021/09/13 02:30:43;;;;;;;20.00;13.73;;;12.20;99.90;;;;;;5031384;28;20208;-66
2021/09/13 02:33:13;;;;;;;18.47;13.37;;;12.10;99.90;;;;;;5031703;28;20197;-67
2021/09/13 02:35:42;;;;;;;18.27;12.80;;;12.10;99.90;;;;;;5040889;28;20220;-66
2021/09/13 02:38:11;;;;;;;15.83;11.83;;;12.10;99.90;;;;;;5050389;28;20400;-67
2021/09/13 02:40:45;;;;;;;13.33;11.27;;;12.10;99.90;;;;;;5024351;28;20231;-66
2021/09/13 02:43:13;;;;;;;14.90;11.30;;;12.00;99.90;;;;;;5054506;28;20198;-66
2021/09/13 02:45:49;;;;;;;13.90;11.57;;;12.00;99.90;;;;;;5038322;28;20213;-66
2021/09/13 02:48:19;;;;;;;13.30;10.27;;;12.00;99.90;;;;;;5034560;28;20232;-66
2021/09/13 02:50:48;;;;;;;14.23;10.30;;;11.90;99.90;;;;;;5039371;28;20173;-67
2021/09/13 02:53:16;;;;;;;17.83;10.90;;;11.90;99.90;;;;;;5034869;28;20193;-66
2021/09/13 02:55:45;;;;;;;14.93;10.80;;;11.80;99.90;;;;;;5052533;28;20689;-66
2021/09/13 02:58:13;;;;;;;13.77;10.87;;;11.80;99.90;;;;;;5034908;28;20449;-66
2021/09/13 03:00:41;;;;;;;12.37;10.90;;;11.70;99.90;;;;;;5038037;28;20189;-66
2021/09/13 03:03:10;;;;;;;13.83;11.00;;;11.70;99.90;;;;;;5037261;28;20304;-66
2021/09/13 03:05:40;;;;;;;11.93;10.47;;;11.70;99.90;;;;;;5040434;28;20181;-66
2021/09/13 03:08:08;;;;;;;13.50;10.70;;;11.70;99.90;;;;;;5040522;28;20346;-66
2021/09/13 03:10:37;;;;;;;11.80;10.20;;;11.70;99.90;;;;;;5038362;28;20192;-66
2021/09/13 03:13:06;;;;;;;11.43;10.03;;;11.60;99.90;;;;;;5036523;28;20365;-66
2021/09/13 03:15:34;;;;;;;10.87;9.47;;;11.60;99.90;;;;;;5027776;28;20190;-67
2021/09/13 03:18:02;;;;;;;11.70;10.17;;;11.50;99.90;;;;;;5040337;28;20181;-66
2021/09/13 03:20:30;;;;;;;11.50;9.80;;;11.50;99.90;;;;;;5035840;28;20343;-67
2021/09/13 03:23:00;;;;;;;11.47;9.97;;;11.50;99.90;;;;;;5032519;28;20189;-66
2021/09/13 03:25:29;;;;;;;10.40;9.30;;;11.50;99.90;;;;;;5036839;28;20369;-67
2021/09/13 03:27:58;;;;;;;16.40;11.33;;;11.40;99.90;;;;;;5038671;28;20201;-66
2021/09/13 03:30:26;;;;;;;15.87;11.60;;;11.40;99.90;;;;;;5037731;28;20181;-66
2021/09/13 03:32:55;;;;;;;12.67;11.30;;;11.40;99.90;;;;;;5033849;28;20187;-66
2021/09/13 03:35:23;;;;;;;13.47;11.40;;;11.40;99.90;;;;;;5033481;28;20181;-67
2021/09/13 03:37:51;;;;;;;12.67;11.27;;;11.40;99.90;;;;;;5038176;28;20323;-66
2021/09/13 03:40:22;;;;;;;17.40;12.33;;;11.30;99.90;;;;;;5037525;28;20215;-66
2021/09/13 03:42:51;;;;;;;13.50;11.47;;;11.40;99.90;;;;;;5035119;28;20260;-66
2021/09/13 03:45:19;;;;;;;14.27;10.87;;;11.30;99.90;;;;;;5037547;28;20208;-66
2021/09/13 03:47:48;;;;;;;11.70;10.37;;;11.30;99.90;;;;;;5038373;28;20410;-67
2021/09/13 03:50:17;;;;;;;13.83;11.40;;;11.30;99.90;;;;;;5041391;28;20187;-66
2021/09/13 03:52:45;;;;;;;13.27;11.53;;;11.30;99.90;;;;;;5040076;28;20379;-66
2021/09/13 03:55:14;;;;;;;12.70;11.23;;;11.20;99.90;;;;;;5037787;28;20220;-66
2021/09/13 03:57:43;;;;;;;14.00;12.10;;;11.20;99.90;;;;;;5032180;28;20189;-66
2021/09/13 04:00:12;;;;;;;18.23;12.37;;;11.20;99.90;;;;;;5039296;28;20202;-67
2021/09/13 04:02:44;;;;;;;18.83;12.90;;;11.20;99.90;;;;;;5035904;28;20437;-66
2021/09/13 04:05:19;;;;;;;18.83;13.70;;;11.10;99.90;;;;;;5034226;28;20181;-66
2021/09/13 04:10:36;;;;;;;19.13;14.10;;;11.10;99.90;;;;;;5039875;28;20189;-66
2021/09/13 04:13:06;;;;;;;19.47;12.97;;;11.10;99.90;;;;;;5037985;28;20181;-66
2021/09/13 04:15:36;;;;;;;16.97;13.13;;;11.10;99.90;;;;;;5033996;28;20189;-66
2021/09/13 04:18:11;;;;;;;13.63;11.43;;;11.10;99.90;;;;;;5033250;28;20219;-67
2021/09/13 04:20:40;;;;;;;16.97;12.57;;;11.00;99.90;;;;;;5030392;28;20266;-66
2021/09/13 04:23:19;;;;;;;15.43;12.17;;;11.00;99.90;;;;;;5035959;28;20184;-67
2021/09/13 04:25:47;;;;;;;15.13;11.63;;;11.00;99.90;;;;;;5033483;28;20181;-66
2021/09/13 04:28:17;;;;;;;19.47;12.73;;;11.00;99.90;;;;;;5034258;28;20210;-66
2021/09/13 04:30:45;;;;;;;16.33;11.70;;;10.90;99.90;;;;;;5052022;28;20193;-66
2021/09/13 04:33:14;;;;;;;16.97;13.13;;;10.90;99.90;;;;;;5038734;28;20593;-66
2021/09/13 04:35:42;;;;;;;16.60;13.07;;;10.90;99.90;;;;;;5038412;28;20208;-67
2021/09/13 04:38:10;;;;;;;19.97;14.03;;;10.90;99.90;;;;;;5030707;28;20269;-66
2021/09/13 04:40:39;;;;;;;17.37;13.43;;;10.90;99.90;;;;;;5036842;28;20212;-66
2021/09/13 04:43:07;;;;;;;20.27;14.00;;;10.80;99.90;;;;;;5038151;28;20243;-66
2021/09/13 04:45:37;;;;;;;16.93;13.33;;;10.80;99.90;;;;;;5038171;28;20182;-66
2021/09/13 04:48:06;;;;;;;18.57;12.00;;;10.80;99.90;;;;;;5034807;28;20212;-66
2021/09/13 04:50:34;;;;;;;14.47;11.40;;;10.80;99.90;;;;;;5038430;28;20217;-66
2021/09/13 04:53:02;;;;;;;15.07;11.23;;;10.70;99.90;;;;;;5033633;28;20211;-66
2021/09/13 04:55:31;;;;;;;15.73;11.63;;;10.70;99.90;;;;;;5054320;28;20181;-67
2021/09/13 04:57:59;;;;;;;13.83;10.83;;;10.70;99.90;;;;;;5038403;28;20398;-66
2021/09/13 05:00:27;;;;;;;16.13;11.63;;;10.70;99.90;;;;;;5033257;28;20235;-66
2021/09/13 05:02:57;;;;;;;16.50;12.57;;;10.70;99.90;;;;;;5048500;28;20181;-66
2021/09/13 05:05:26;;;;;;;17.03;12.83;;;10.70;99.90;;;;;;5037189;28;20425;-66
2021/09/13 05:07:54;;;;;;;16.63;12.57;;;10.70;99.90;;;;;;5036378;28;20484;-66
2021/09/13 05:10:23;;;;;;;18.83;13.90;;;10.60;99.90;;;;;;5037741;28;20185;-66
2021/09/13 05:12:51;;;;;;;17.90;13.23;;;10.60;99.90;;;;;;5053830;28;20391;-66
2021/09/13 05:15:20;;;;;;;18.80;13.63;;;10.60;99.90;;;;;;5033256;28;20247;-66
2021/09/13 05:17:48;;;;;;;17.00;12.60;;;10.60;99.90;;;;;;5037507;28;20348;-66
2021/09/13 05:20:19;;;;;;;17.60;12.23;;;10.60;99.90;;;;;;5033870;28;20216;-66
2021/09/13 05:22:47;;;;;;;15.10;11.93;;;10.60;99.90;;;;;;5029256;28;20181;-66
2021/09/13 05:25:17;;;;;;;16.93;12.50;;;10.60;99.90;;;;;;5031750;28;20178;-66
2021/09/13 05:27:45;;;;;;;16.60;12.33;;;10.50;99.90;;;;;;5035869;28;20220;-66
2021/09/13 05:30:15;;;;;;;17.63;12.70;;;10.50;99.90;;;;;;5033306;28;20188;-66
2021/09/13 05:32:44;;;;;;;19.73;13.13;;;10.50;99.90;;;;;;5033337;28;20361;-66
2021/09/13 05:35:13;;;;;;;22.87;14.23;;;10.50;99.90;;;;;;5032441;28;20196;-67
2021/09/13 05:37:43;;;;;;;24.97;15.70;;;10.50;99.90;;;;;;5045542;28;20453;-67
2021/09/13 05:40:12;;;;;;;29.67;16.30;;;10.50;99.90;;;;;;5035473;28;20303;-66
2021/09/13 05:42:40;;;;;;;26.37;16.70;;;10.60;99.90;;;;;;5049633;28;20185;-66
2021/09/13 05:45:09;;;;;;;25.53;16.70;;;10.60;99.90;;;;;;5034640;28;20232;-67
2021/09/13 05:47:38;;;;;;;31.03;17.77;;;10.70;99.90;;;;;;5033939;28;20181;-66
2021/09/13 05:50:07;;;;;;;28.30;17.87;;;10.80;99.90;;;;;;5036349;28;20520;-66
2021/09/13 05:52:35;;;;;;;34.77;19.77;;;10.90;99.90;;;;;;5031522;28;20190;-66
2021/09/13 05:55:06;;;;;;;32.17;18.73;;;10.90;99.90;;;;;;5030266;28;20546;-66
2021/09/13 05:57:35;;;;;;;36.27;20.03;;;10.90;99.90;;;;;;5037687;28;20231;-66
2021/09/13 06:00:04;;;;;;;37.23;20.90;;;11.00;99.90;;;;;;5049507;28;20335;-66
2021/09/13 06:02:32;;;;;;;34.53;19.80;;;11.00;99.90;;;;;;5053750;28;20186;-67
2021/09/13 06:05:01;;;;;;;31.47;19.20;;;11.10;99.90;;;;;;5036058;28;20380;-66
2021/09/13 06:07:29;;;;;;;27.03;17.93;;;11.10;99.90;;;;;;5040788;28;20208;-66
2021/09/13 06:09:58;;;;;;;26.60;17.33;;;11.20;99.90;;;;;;5029120;28;20466;-66
2021/09/13 06:12:28;;;;;;;25.13;16.47;;;11.20;99.90;;;;;;5029135;28;20182;-66
2021/09/13 06:14:56;;;;;;;30.90;16.67;;;11.20;99.90;;;;;;5038568;28;20476;-66
2021/09/13 06:17:26;;;;;;;25.37;16.53;;;11.20;99.90;;;;;;5037861;28;20224;-66
2021/09/13 06:19:54;;;;;;;25.40;16.27;;;11.20;99.90;;;;;;5039516;28;20189;-66
2021/09/13 06:22:23;;;;;;;26.80;16.00;;;11.20;99.90;;;;;;5030494;28;20240;-66
2021/09/13 06:24:51;;;;;;;23.23;15.70;;;11.20;99.90;;;;;;5043245;28;20444;-66
2021/09/13 06:27:20;;;;;;;24.43;15.87;;;11.30;99.90;;;;;;5041607;28;20457;-66
2021/09/13 06:29:49;;;;;;;27.30;16.50;;;11.30;99.90;;;;;;5031324;28;20469;-66
2021/09/13 06:32:18;;;;;;;23.07;16.20;;;11.40;99.90;;;;;;5039842;28;20196;-66
2021/09/13 06:34:46;;;;;;;23.73;15.83;;;11.50;99.90;;;;;;5038215;28;20189;-66
2021/09/13 06:37:14;;;;;;;25.60;17.87;;;11.60;99.90;;;;;;5038391;28;20201;-67
2021/09/13 06:39:43;;;;;;;30.90;20.13;;;11.70;99.90;;;;;;5041677;28;20181;-66
2021/09/13 06:42:11;;;;;;;28.20;19.83;;;11.90;99.90;;;;;;5041621;28;20184;-66
2021/09/13 06:44:39;;;;;;;29.50;20.60;;;12.10;99.90;;;;;;5038296;28;20225;-67
2021/09/13 06:47:10;;;;;;;30.53;20.40;;;12.30;99.90;;;;;;5034927;28;20255;-66
2021/09/13 06:49:41;;;;;;;27.37;18.97;;;12.40;99.90;;;;;;5040391;28;20251;-67
2021/09/13 06:52:10;;;;;;;32.03;19.03;;;12.50;99.90;;;;;;5039106;28;20181;-66
2021/09/13 06:54:38;;;;;;;37.27;18.70;;;12.70;99.90;;;;;;5037834;28;20188;-66
2021/09/13 06:57:09;;;;;;;28.50;17.80;;;12.80;99.90;;;;;;5038604;28;20181;-66
2021/09/13 06:59:38;;;;;;;31.03;17.27;;;12.90;99.90;;;;;;5039746;28;20176;-66
2021/09/13 07:02:09;;;;;;;27.67;16.33;;;13.00;99.90;;;;;;5039482;28;20177;-66
2021/09/13 07:04:38;;;;;;;27.03;17.30;;;13.10;99.90;;;;;;5040784;28;20473;-66
2021/09/13 07:07:06;;;;;;;24.63;16.63;;;13.20;99.90;;;;;;5035780;28;20185;-67
2021/09/13 07:09:35;;;;;;;24.33;16.80;;;13.30;99.90;;;;;;5039049;28;20217;-67
2021/09/13 07:12:03;;;;;;;27.50;17.80;;;13.40;99.90;;;;;;5035783;28;20185;-66
2021/09/13 07:14:32;;;;;;;24.67;16.33;;;13.60;99.90;;;;;;5040018;28;20426;-67
2021/09/13 07:17:01;;;;;;;32.43;17.97;;;13.70;99.90;;;;;;5040152;28;20185;-67
2021/09/13 07:19:30;;;;;;;31.13;18.00;;;13.80;99.90;;;;;;5040461;28;20193;-67
2021/09/13 07:21:59;;;;;;;25.73;17.10;;;14.00;99.90;;;;;;5035045;28;20186;-66
2021/09/13 07:24:27;;;;;;;21.67;16.60;;;14.10;99.90;;;;;;5040312;28;20202;-67
2021/09/13 07:26:55;;;;;;;21.73;14.50;;;14.30;99.90;;;;;;5038550;28;20468;-67
2021/09/13 07:29:25;;;;;;;22.47;15.13;;;14.30;99.90;;;;;;5039082;28;20214;-67
2021/09/13 07:31:53;;;;;;;24.10;14.57;;;14.40;99.90;;;;;;5035760;28;20185;-66
2021/09/13 07:34:21;;;;;;;20.37;15.20;;;14.50;99.90;;;;;;5034582;28;20192;-67
2021/09/13 07:36:51;;;;;;;18.73;15.00;;;14.60;99.90;;;;;;5040251;28;20204;-67
2021/09/13 07:39:19;;;;;;;19.07;14.47;;;14.70;99.90;;;;;;5040496;28;20185;-66
2021/09/13 07:41:47;;;;;;;19.87;14.67;;;14.80;99.90;;;;;;5035183;28;20190;-67
2021/09/13 07:44:16;;;;;;;22.07;14.80;;;14.80;99.90;;;;;;5035378;28;20233;-67
2021/09/13 07:46:44;;;;;;;21.97;14.20;;;14.90;99.90;;;;;;5040008;28;20453;-67
2021/09/13 07:49:13;;;;;;;16.87;13.57;;;15.00;99.90;;;;;;5036941;28;20213;-67
2021/09/13 07:51:42;;;;;;;22.40;14.63;;;15.20;99.90;;;;;;5039174;28;20484;-66
2021/09/13 07:54:11;;;;;;;18.50;13.97;;;15.40;99.90;;;;;;5049840;28;20182;-67
2021/09/13 07:56:40;;;;;;;18.60;13.73;;;15.60;99.90;;;;;;5038608;28;20185;-67
2021/09/13 07:59:08;;;;;;;14.17;11.80;;;15.80;99.90;;;;;;5054049;28;20303;-67
2021/09/13 08:01:37;;;;;;;13.87;11.10;;;15.80;99.90;;;;;;5036525;28;20220;-66
2021/09/13 08:04:07;;;;;;;14.33;11.27;;;15.90;99.90;;;;;;5033995;28;20205;-66
2021/09/13 08:06:35;;;;;;;13.87;11.03;;;15.90;99.90;;;;;;5034853;28;20406;-66
2021/09/13 08:09:06;;;;;;;16.87;10.97;;;16.00;99.90;;;;;;5033045;28;20422;-67
2021/09/13 08:11:36;;;;;;;14.03;10.53;;;16.00;99.90;;;;;;5033520;28;20194;-67
2021/09/13 08:14:05;;;;;;;12.20;10.40;;;16.10;99.90;;;;;;5033535;28;20194;-66
2021/09/13 08:16:33;;;;;;;13.97;10.07;;;16.30;99.90;;;;;;5038104;28;20243;-67
2021/09/13 08:19:03;;;;;;;16.53;10.30;;;16.40;99.90;;;;;;5036246;28;20175;-67
2021/09/13 08:21:33;;;;;;;14.67;10.90;;;16.50;99.90;;;;;;5039000;28;20198;-67
2021/09/13 08:24:02;;;;;;;15.67;10.20;;;16.70;99.90;;;;;;5034043;28;20182;-67
2021/09/13 08:26:30;;;;;;;12.63;9.90;;;16.80;99.90;;;;;;5041260;28;20411;-67
2021/09/13 08:29:00;;;;;;;14.17;10.07;;;16.90;99.90;;;;;;5036635;28;20187;-67
2021/09/13 08:31:29;;;;;;;11.50;9.27;;;17.00;99.90;;;;;;5037388;28;20190;-67
2021/09/13 08:33:57;;;;;;;14.13;9.87;;;17.00;99.90;;;;;;5031788;28;20190;-67
2021/09/13 08:36:25;;;;;;;13.03;8.97;;;17.10;99.90;;;;;;5033938;28;20197;-67
2021/09/13 08:38:54;;;;;;;12.67;8.83;;;17.20;99.90;;;;;;5034130;28;20295;-67
2021/09/13 08:41:22;;;;;;;9.77;8.47;;;17.30;99.90;;;;;;5037483;28;20334;-67
2021/09/13 08:43:52;;;;;;;10.97;8.80;;;17.30;99.90;;;;;;5035587;28;20430;-67
2021/09/13 08:46:33;;;;;;;13.33;8.43;;;17.50;99.90;;;;;;5035727;28;20189;-67
2021/09/13 08:49:06;;;;;;;8.93;7.57;;;17.60;99.90;;;;;;5036026;28;20349;-67
2021/09/13 08:51:34;;;;;;;9.07;6.97;;;17.80;99.90;;;;;;5039967;28;20192;-67
2021/09/13 08:54:06;;;;;;;8.50;7.60;;;18.00;99.90;;;;;;5052776;28;20187;-67
2021/09/13 08:56:39;;;;;;;9.67;7.10;;;18.20;99.90;;;;;;5037210;28;20235;-67
2021/09/13 08:59:14;;;;;;;8.70;7.10;;;18.50;99.90;;;;;;5036970;28;20476;-67
2021/09/13 09:01:44;;;;;;;9.40;7.93;;;18.60;99.90;;;;;;5040214;28;20361;-67
2021/09/13 09:04:13;;;;;;;7.17;6.43;;;18.60;99.90;;;;;;5029429;28;20252;-67
2021/09/13 09:06:44;;;;;;;10.73;7.50;;;18.60;99.90;;;;;;5035400;28;20261;-66
2021/09/13 09:09:14;;;;;;;8.87;7.10;;;18.80;99.90;;;;;;5035690;28;20474;-67
2021/09/13 09:12:02;;;;;;;7.60;6.80;;;18.90;99.90;;;;;;5038506;28;20189;-66
2021/09/13 09:14:39;;;;;;;8.77;7.27;;;19.00;99.90;;;;;;5039377;28;20181;-67
2021/09/13 09:17:14;;;;;;;6.70;6.10;;;19.10;99.90;;;;;;5040337;28;20207;-66
2021/09/13 09:19:43;;;;;;;7.10;6.40;;;19.10;99.90;;;;;;5035825;28;20493;-67
2021/09/13 09:22:26;;;;;;;9.33;5.83;;;19.10;99.90;;;;;;5035162;28;20173;-67
2021/09/13 09:24:57;;;;;;;10.17;6.77;;;19.30;99.90;;;;;;5036215;28;20196;-67
2021/09/13 09:27:27;;;;;;;9.60;6.60;;;19.30;99.90;;;;;;5036610;28;20186;-67
2021/09/13 09:29:56;;;;;;;7.73;6.30;;;19.40;99.90;;;;;;5036029;28;20267;-67
2021/09/13 09:32:27;;;;;;;7.73;6.53;;;19.50;99.90;;;;;;5037037;28;20204;-67
2021/09/13 09:34:56;;;;;;;8.33;5.77;;;19.60;99.90;;;;;;5030135;28;20390;-67
2021/09/13 09:37:25;;;;;;;7.90;6.00;;;19.60;99.90;;;;;;5035457;28;20186;-67
2021/09/13 09:39:59;;;;;;;8.60;6.50;;;19.60;99.90;;;;;;5019898;28;20345;-67
2021/09/13 09:42:31;;;;;;;6.63;5.60;;;19.70;99.90;;;;;;5033583;28;20429;-67
2021/09/13 09:45:01;;;;;;;7.03;5.73;;;19.80;99.90;;;;;;5034893;28;20243;-67
2021/09/13 09:47:31;;;;;;;6.60;6.00;;;19.80;99.90;;;;;;5037223;28;20201;-67
2021/09/13 09:50:00;;;;;;;7.77;5.87;;;19.90;99.90;;;;;;5036929;28;20276;-67
2021/09/13 09:52:34;;;;;;;6.37;5.77;;;19.90;99.90;;;;;;5037464;28;20197;-66
2021/09/13 09:55:08;;;;;;;9.23;5.13;;;20.20;99.90;;;;;;5034820;28;20192;-67
2021/09/13 09:57:36;;;;;;;6.13;4.77;;;20.20;99.90;;;;;;5040045;28;20205;-67
2021/09/13 10:00:23;;;;;;;5.03;4.53;;;20.20;99.90;;;;;;5039421;28;20190;-67
2021/09/13 10:02:53;;;;;;;4.80;4.40;;;20.30;99.90;;;;;;5034010;28;20421;-67
2021/09/13 10:05:23;;;;;;;5.07;4.50;;;20.40;99.90;;;;;;5039892;28;20227;-67
2021/09/13 10:07:52;;;;;;;5.67;4.40;;;20.40;99.90;;;;;;5039467;28;20182;-67
2021/09/13 10:10:24;;;;;;;5.83;4.43;;;20.40;99.90;;;;;;5041686;28;20470;-67
2021/09/13 10:12:55;;;;;;;4.23;3.93;;;20.30;99.90;;;;;;5042412;28;20181;-67
2021/09/13 10:15:24;;;;;;;4.53;3.87;;;20.30;99.90;;;;;;5039348;28;20193;-67
2021/09/13 10:17:54;;;;;;;6.20;3.40;;;20.40;99.90;;;;;;5039634;28;20257;-67
2021/09/13 10:20:24;;;;;;;4.07;3.50;;;20.40;99.90;;;;;;5035875;28;20356;-67
2021/09/13 10:22:55;;;;;;;3.93;3.53;;;20.60;99.90;;;;;;5037439;28;20202;-66
2021/09/13 10:25:29;;;;;;;2.87;2.67;;;20.60;99.90;;;;;;5032513;28;20209;-67
2021/09/13 10:28:04;;;;;;;4.33;3.33;;;20.70;99.90;;;;;;5037440;28;20223;-67
2021/09/13 10:30:34;;;;;;;6.90;2.70;;;20.90;99.90;;;;;;5038460;28;20219;-67
2021/09/13 10:33:15;;;;;;;3.97;2.73;;;21.00;99.90;;;;;;5033312;28;20170;-67
2021/09/13 10:35:54;;;;;;;2.57;2.20;;;21.20;99.90;;;;;;5039094;28;20212;-67
2021/09/13 10:38:42;;;;;;;5.47;2.57;;;21.40;99.90;;;;;;5049887;28;20224;-67
2021/09/13 10:41:11;;;;;;;7.83;2.43;;;21.50;99.90;;;;;;5054910;28;20216;-67
2021/09/13 10:44:05;;;;;;;2.10;2.00;;;21.50;99.90;;;;;;5040302;28;20508;-67
2021/09/13 10:47:01;;;;;;;2.77;2.53;;;21.70;99.90;;;;;;5037855;28;20221;-67
2021/09/13 10:49:31;;;;;;;2.90;2.23;;;21.60;99.90;;;;;;5037966;28;20185;-67
2021/09/13 10:52:31;;;;;;;2.60;2.40;;;21.80;99.90;;;;;;5039355;28;20290;-67
2021/09/13 10:55:20;;;;;;;3.67;2.20;;;21.80;99.90;;;;;;5040047;28;20201;-66
2021/09/13 10:58:09;;;;;;;2.50;2.00;;;21.80;99.90;;;;;;5039539;28;20195;-67
2021/09/13 11:01:00;;;;;;;4.30;2.40;;;21.60;99.90;;;;;;5054817;28;20177;-67
2021/09/13 11:03:34;;;;;;;4.00;1.97;;;21.70;99.90;;;;;;5034901;28;20197;-67
2021/09/13 11:06:24;;;;;;;4.33;2.20;;;21.70;99.90;;;;;;5038506;28;20187;-67
2021/09/13 11:08:55;;;;;;;2.27;2.07;;;21.70;99.90;;;;;;5033052;28;20236;-67
2021/09/13 11:11:26;;;;;;;2.13;2.00;;;21.80;99.90;;;;;;5029696;28;20213;-67
2021/09/13 11:14:00;;;;;;;2.80;2.60;;;21.80;99.90;;;;;;5036717;28;20220;-66
2021/09/13 11:16:29;;;;;;;2.27;2.07;;;21.70;99.90;;;;;;5035910;28;20186;-67
2021/09/13 11:18:57;;;;;;;2.67;2.30;;;21.70;99.90;;;;;;5038198;28;20174;-67
2021/09/13 11:21:28;;;;;;;4.37;2.40;;;21.70;99.90;;;;;;5036734;28;20191;-67
2021/09/13 11:23:59;;;;;;;3.00;2.30;;;21.80;99.90;;;;;;5039480;28;20361;-67
2021/09/13 11:26:32;;;;;;;2.30;2.10;;;21.80;99.90;;;;;;5036743;28;20332;-67
2021/09/13 11:29:02;;;;;;;5.47;2.20;;;22.10;99.90;;;;;;5041315;28;20177;-66
2021/09/13 11:31:34;;;;;;;3.13;2.10;;;22.20;99.90;;;;;;5039018;28;20209;-67
2021/09/13 11:34:06;;;;;;;2.00;1.90;;;22.30;99.90;;;;;;5037471;28;20234;-67
2021/09/13 11:36:35;;;;;;;2.00;1.90;;;22.30;99.90;;;;;;5034644;28;20186;-67
2021/09/13 11:39:06;;;;;;;3.00;2.50;;;22.30;99.90;;;;;;5034352;28;20306;-67
2021/09/13 11:41:35;;;;;;;3.13;2.20;;;22.30;99.90;;;;;;5037176;28;20232;-67
2021/09/13 11:44:07;;;;;;;4.87;2.40;;;22.40;99.90;;;;;;5037421;28;20318;-67
2021/09/13 11:46:53;;;;;;;3.03;2.20;;;22.30;99.90;;;;;;5039502;28;20182;-67
2021/09/13 11:49:23;;;;;;;4.57;2.50;;;22.20;99.90;;;;;;5035627;28;20208;-67
2021/09/13 11:52:14;;;;;;;2.90;2.60;;;22.40;99.90;;;;;;5036453;28;20297;-66
2021/09/13 11:54:48;;;;;;;3.17;2.20;;;22.50;99.90;;;;;;5036769;28;20189;-72
2021/09/13 11:57:25;;;;;;;2.23;2.03;;;22.50;99.90;;;;;;5033924;28;20189;-64
2021/09/13 11:59:55;;;;;;;6.23;2.57;;;22.60;99.90;;;;;;5035312;28;20185;-65
2021/09/13 12:02:24;;;;;;;2.03;1.93;;;22.50;99.90;;;;;;5035702;28;20236;-65
2021/09/13 12:04:54;;;;;;;6.80;3.20;;;22.50;99.90;;;;;;5038893;28;20182;-65
2021/09/13 12:07:24;;;;;;;3.03;2.83;;;22.60;99.90;;;;;;5039335;28;20422;-65
2021/09/13 12:09:53;;;;;;;5.33;2.67;;;22.60;99.90;;;;;;5040899;28;20193;-65
2021/09/13 12:12:24;;;;;;;4.47;2.47;;;22.60;99.90;;;;;;5036737;28;20244;-65
2021/09/13 12:14:56;;;;;;;6.10;2.93;;;22.50;99.90;;;;;;5040794;28;20261;-65
2021/09/13 12:17:24;;;;;;;3.23;2.53;;;22.40;99.90;;;;;;5039050;28;20186;-65
2021/09/13 12:20:12;;;;;;;4.50;3.37;;;22.30;99.90;;;;;;5040652;28;20245;-65
2021/09/13 12:22:42;;;;;;;4.00;2.63;;;22.30;99.90;;;;;;5032923;28;20190;-65
2021/09/13 12:25:14;;;;;;;4.13;2.97;;;22.40;99.90;;;;;;5036324;28;20219;-65
2021/09/13 12:27:44;;;;;;;5.07;3.00;;;22.40;99.90;;;;;;5037683;28;20331;-66
2021/09/13 12:30:19;;;;;;;4.80;3.00;;;22.40;99.90;;;;;;5034307;28;20182;-65
2021/09/13 12:32:57;;;;;;;3.03;2.73;;;22.40;99.90;;;;;;5037648;28;20213;-65
2021/09/13 12:35:34;;;;;;;6.33;3.13;;;22.50;99.90;;;;;;5038020;28;20186;-65
2021/09/13 12:38:07;;;;;;;3.47;3.03;;;22.70;99.90;;;;;;5037162;28;20212;-64
2021/09/13 12:40:49;;;;;;;3.93;2.93;;;22.70;99.90;;;;;;5034949;28;20481;-64
2021/09/13 12:43:21;;;;;;;3.03;2.83;;;22.90;99.90;;;;;;5035554;28;20195;-63
2021/09/13 12:45:49;;;;;;;6.27;3.60;;;23.10;99.90;;;;;;5037508;28;20202;-65
2021/09/13 12:48:26;;;;;;;4.13;3.77;;;23.30;99.90;;;;;;5032160;28;20253;-67
2021/09/13 12:50:55;;;;;;;4.63;3.60;;;23.10;99.90;;;;;;5034886;28;20448;-65
2021/09/13 12:53:29;;;;;;;4.03;3.50;;;23.00;99.90;;;;;;5033846;28;20221;-64
2021/09/13 12:55:59;;;;;;;4.90;3.70;;;23.00;99.90;;;;;;5030278;28;20179;-65